Terminal Aerodrome Forecast
Issued by NWS Newport/Morehead City, NC

Home | Current Version | Previous Version | Text Only | Print | Product List | Glossary On
Versions: 1 2 3 4 5 6 7 8 9 10 11 12 13 14 15 16 17 18
000
FTUS42 KMHX 011100
TAFEWN
TAF
KEWN 011139Z 0112/0212 36004KT P6SM SCT050 BKN100
     FM011300 01007KT P6SM VCSH SCT025 BKN050
     FM011800 36010G17KT 3SM RA VCTS OVC015CB
     FM020000 34016G26KT 5SM -RA OVC020
     FM020600 32018G25KT P6SM VCSH OVC020=

USA.gov is the U.S. government's official web portal to all federal, state and local government web resources and services.